ESNU

Umeå Airport

Umeå, Sweden
METAR ESNU 092220Z 13014KT 7000 RA OVC005 03/03 Q0987 R14/71//65
Observed Flight Rules
Dec-9 @ 22:20 UTC (29 minutes ago) Instrument Flight Rules
Wind Visibility Clouds Conditions
130° at 14 knots 7,001 meters
  • Overcast at 500' AGL
  • Rain
Temperatures Readings
Current 3°C / 37°F
Dewpoint 3°C / 37°F
Humidity 100%
Altimeter 29.14" Hg
Pressure 987 hPa
Elevation 14
METAR ESNU 092220Z 13014KT 7000 RA OVC005 03/03 Q0987 R14/71//65
Observed Flight Rules
Dec-9 @ 22:20 UTC
(29 minutes ago)
IFR
Wind Visibility
130° at 14 knots 7,001 meters
Clouds
  • Overcast at 500' AGL
Conditions
  • Rain
Temperature Dewpoint
3°C / 37°F 3°C / 37°F
Humidity Altimeter Pressure
100% 29.14" Hg 987 hPa